YSCB Airport Information

Runway Information
Runway 12 Length 5509 ft width 148 ft
Elevation 1849 ft Threshold 0 ft Heading 130
Runway 30 Length 5509 ft Width 148 ft
Elevation 1886 ft Threshold 214 ft Heading 310
Runway 17 Length 10771 ft width 148 ft
Elevation 1874 ft Threshold 0 ft Heading 180
Runway 35 Length 10771 ft Width 148 ft
Elevation 1870 ft Threshold 1968 ft Heading 360
Airport Frequencies
Type APP/DEP EA Name Approach/D Frequency 124.5 MHZ
Type APP/DEP WE Name Approach/D Frequency 125.9 MHZ
Type ATIS Name ATIS Frequency 127.45 MHZ
Type ATIS/VOR Name ATIS AH Frequency 116.7 MHZ
Type GCCD Name GND CLNC D Frequency 121.7 MHZ
Type TWR/CTAF Name TWR (CTAF Frequency 118.7 MHZ
Airport Navaids
Type VOR-DME Name Canberra Frequency 116700 KHZ
Type NDB Name Canberra Frequency 263 KHZ
Type NDB Name Church Creek Frequency 248 KHZ
Airport Weather Information & NOTAM
ADDS - METARS form results

(0647 UTC 07 March 2021)
Data provider http://aviationweather.gov/metar/data/
 
METAR text: YSCB 070630Z AUTO 27009KT 9999 // NCD 25/08 Q1011
Conditions at: YSCB (CANBERRA (CIV/MI, AU) observed 0630 UTC 07 March 2021
Temperature: 25.0°C (77°F)
Dewpoint: 8.0°C (46°F) [RH = 34%]
Pressure (altimeter): 29.85 inches Hg (1011.0 mb)
Winds: from the W (270 degrees) at 10 MPH (9 knots; 4.6 m/s)
Visibility: 6 or more miles (10+ km)
Ceiling: at least 12,000 feet AGL
Clouds: sky clear below 12,000 feet AGL
Weather: no significant weather observed at this time

METAR text: YSCB 070600Z AUTO 29010KT 270V330 9999 // SCT070 26/08 Q1011
Conditions at: YSCB (CANBERRA (CIV/MI, AU) observed 0600 UTC 07 March 2021
Temperature: 26.0°C (79°F)
Dewpoint: 8.0°C (46°F) [RH = 32%]
Pressure (altimeter): 29.85 inches Hg (1011.0 mb)
Winds: from the WNW (290 degrees) at 12 MPH (10 knots; 5.1 m/s)
Visibility: 6 or more miles (10+ km)
Ceiling: at least 12,000 feet AGL
Clouds: scattered clouds at 7000 feet AGL
Weather: no significant weather observed at this time

Forecast for: YSCB (CANBERRA (CIV/MI, AU)
Text: TAF YSCB 070519Z 0706/0806 31012KT CAVOK
Forecast period: 0600 to 1000 UTC 07 March 2021
Forecast type: FROM: standard forecast or significant change
Winds: from the NW (310 degrees) at 14 MPH (12 knots; 6.2 m/s)
Visibility: 6 or more miles (10+ km)
Ceiling: unknown
Clouds: missing
Weather: NSW  (no significant weather)
Text: FM071000 12005KT CAVOK
Forecast period: 1000 UTC 07 March 2021 to 0000 UTC 08 March 2021
Forecast type: FROM: standard forecast or significant change
Winds: from the ESE (120 degrees) at 6 MPH (5 knots; 2.6 m/s)
Visibility: 6 or more miles (10+ km)
Ceiling: unknown
Clouds: missing
Weather: NSW  (no significant weather)
Text: FM080000 30010KT CAVOK
Forecast period: 0000 to 0600 UTC 08 March 2021
Forecast type: FROM: standard forecast or significant change
Winds: from the WNW (300 degrees) at 12 MPH (10 knots; 5.1 m/s)
Visibility: 6 or more miles (10+ km)
Ceiling: unknown
Clouds: missing
Weather: NSW  (no significant weather)